Time;durP1;ratioP1;P1;durP2;ratioP2;P2;SDS_P1;SDS_P2;PMS_P1;PMS_P2;Temp;Humidity;BMP_temperature;BMP_pressure;BME280_temperature;BME280_humidity;BME280_pressure;Samples;Min_cycle;Max_cycle;Signal;HPM_P1;HPM_P2
2023/03/26 00:00:22;;;;;;;3.53;1.30;;;;;;;;;;4974872;28;20494;-80
2023/03/26 00:02:49;;;;;;;4.85;1.35;;;;;;;;;;4967495;28;20124;-80
2023/03/26 00:05:15;;;;;;;5.07;1.40;;;;;;;;;;4967550;28;20051;-80
2023/03/26 00:07:42;;;;;;;2.17;1.10;;;;;;;;;;4973592;28;20043;-79
2023/03/26 00:10:10;;;;;;;4.60;1.30;;;;;;;;;;4966650;28;20138;-79
2023/03/26 00:12:41;;;;;;;4.15;1.25;;;;;;;;;;4969155;28;20483;-79
2023/03/26 00:15:09;;;;;;;3.15;1.08;;;;;;;;;;4971593;28;20678;-79
2023/03/26 00:17:36;;;;;;;3.65;1.00;;;;;;;;;;4972347;28;20058;-80
2023/03/26 00:20:04;;;;;;;4.75;1.10;;;;;;;;;;4972983;28;20431;-81
2023/03/26 00:22:30;;;;;;;2.58;1.08;;;;;;;;;;4973484;28;20092;-80
2023/03/26 00:24:58;;;;;;;4.05;1.45;;;;;;;;;;4973692;28;20110;-80
2023/03/26 00:27:26;;;;;;;2.17;1.08;;;;;;;;;;4972165;28;20047;-80
2023/03/26 00:29:55;;;;;;;4.47;1.33;;;;;;;;;;4972111;28;20101;-80
2023/03/26 00:32:21;;;;;;;2.88;1.30;;;;;;;;;;4972349;28;20498;-80
2023/03/26 00:34:50;;;;;;;3.85;1.25;;;;;;;;;;4973611;28;20137;-79
2023/03/26 00:37:19;;;;;;;3.58;1.27;;;;;;;;;;4971234;28;20572;-81
2023/03/26 00:39:47;;;;;;;4.82;1.40;;;;;;;;;;4973744;28;20054;-80
2023/03/26 00:42:14;;;;;;;3.17;1.17;;;;;;;;;;4974222;28;20067;-81
2023/03/26 00:44:41;;;;;;;3.17;1.00;;;;;;;;;;4974090;28;20635;-82
2023/03/26 00:47:09;;;;;;;4.32;2.13;;;;;;;;;;4973419;28;20550;-79
2023/03/26 00:49:35;;;;;;;4.68;1.08;;;;;;;;;;4975332;28;20070;-81
2023/03/26 00:52:02;;;;;;;6.38;1.23;;;;;;;;;;4977434;28;20078;-80
2023/03/26 00:54:29;;;;;;;4.78;1.40;;;;;;;;;;4976181;28;20043;-80
2023/03/26 00:56:56;;;;;;;2.05;0.95;;;;;;;;;;4975809;28;20061;-80
2023/03/26 00:59:22;;;;;;;2.67;1.30;;;;;;;;;;4976685;28;20070;-82
2023/03/26 01:01:50;;;;;;;3.05;1.15;;;;;;;;;;4977101;28;20093;-80
2023/03/26 01:04:29;;;;;;;3.17;1.20;;;;;;;;;;4976574;28;20175;-79
2023/03/26 01:06:57;;;;;;;3.25;1.20;;;;;;;;;;4974029;28;20042;-80
2023/03/26 01:09:41;;;;;;;1.85;0.88;;;;;;;;;;4975453;28;20449;-79
2023/03/26 01:12:14;;;;;;;7.90;1.77;;;;;;;;;;4971429;28;20413;-78
2023/03/26 01:14:41;;;;;;;4.18;1.35;;;;;;;;;;4975690;28;20126;-79
2023/03/26 01:17:11;;;;;;;4.07;0.90;;;;;;;;;;4975135;28;20505;-79
2023/03/26 01:19:44;;;;;;;4.07;1.08;;;;;;;;;;4974313;28;20046;-80
2023/03/26 01:22:14;;;;;;;3.30;1.70;;;;;;;;;;4974883;28;20049;-79
2023/03/26 01:24:42;;;;;;;6.30;1.25;;;;;;;;;;4975024;28;20047;-79
2023/03/26 01:27:25;;;;;;;4.38;1.17;;;;;;;;;;4974748;28;20043;-80
2023/03/26 01:29:55;;;;;;;4.20;1.10;;;;;;;;;;4974155;28;20074;-80
2023/03/26 01:32:39;;;;;;;4.78;1.58;;;;;;;;;;4976136;28;20097;-80
2023/03/26 01:35:19;;;;;;;5.70;1.42;;;;;;;;;;4977212;28;20118;-79
2023/03/26 01:37:57;;;;;;;4.70;1.85;;;;;;;;;;4974395;28;20142;-80
2023/03/26 01:40:37;;;;;;;5.03;1.75;;;;;;;;;;4975684;28;20043;-79
2023/03/26 01:43:09;;;;;;;3.90;1.17;;;;;;;;;;4976135;28;20051;-79
2023/03/26 01:45:42;;;;;;;5.82;1.92;;;;;;;;;;4974995;28;20055;-81
2023/03/26 01:48:08;;;;;;;5.25;1.25;;;;;;;;;;4976349;28;20083;-80
2023/03/26 01:50:40;;;;;;;4.20;1.35;;;;;;;;;;4977187;28;20049;-80
2023/03/26 01:53:09;;;;;;;4.07;0.98;;;;;;;;;;4976970;28;20070;-80
2023/03/26 01:55:48;;;;;;;5.35;1.05;;;;;;;;;;4982031;28;20054;-78
2023/03/26 01:58:22;;;;;;;7.00;1.48;;;;;;;;;;4987206;28;20050;-78
2023/03/26 02:00:56;;;;;;;4.00;1.30;;;;;;;;;;4980698;28;20129;-81
2023/03/26 02:03:27;;;;;;;5.40;1.40;;;;;;;;;;4971127;28;20421;-80
2023/03/26 02:06:00;;;;;;;4.95;1.40;;;;;;;;;;4970831;28;20079;-79
2023/03/26 02:08:34;;;;;;;4.72;1.33;;;;;;;;;;4971752;28;20130;-80
2023/03/26 02:11:09;;;;;;;6.97;1.45;;;;;;;;;;4971880;28;20047;-79
2023/03/26 02:13:36;;;;;;;7.35;2.13;;;;;;;;;;4977392;28;20482;-79
2023/03/26 02:16:05;;;;;;;6.40;1.73;;;;;;;;;;4975343;28;20561;-80
2023/03/26 02:18:36;;;;;;;4.70;1.50;;;;;;;;;;4975984;28;20454;-80
2023/03/26 02:21:05;;;;;;;4.63;1.67;;;;;;;;;;4971550;28;20043;-81
2023/03/26 02:23:34;;;;;;;7.18;1.50;;;;;;;;;;4973926;28;20148;-82
2023/03/26 02:26:05;;;;;;;3.25;1.30;;;;;;;;;;4974881;28;20058;-80
2023/03/26 02:28:31;;;;;;;4.35;1.27;;;;;;;;;;4979702;28;20055;-80
2023/03/26 02:31:00;;;;;;;6.95;1.70;;;;;;;;;;4976936;28;20058;-80
2023/03/26 02:33:27;;;;;;;5.45;1.35;;;;;;;;;;4980927;28;20090;-79
2023/03/26 02:35:58;;;;;;;7.18;2.00;;;;;;;;;;4976570;28;20074;-78
2023/03/26 02:38:25;;;;;;;6.03;1.67;;;;;;;;;;4980864;28;20047;-78
2023/03/26 02:40:53;;;;;;;4.50;1.50;;;;;;;;;;4977852;28;20074;-79
2023/03/26 02:43:21;;;;;;;6.35;1.55;;;;;;;;;;5007536;22;20065;-56
2023/03/26 02:45:48;;;;;;;7.78;2.05;;;;;;;;;;4961363;28;20066;-59
2023/03/26 02:48:15;;;;;;;5.32;1.45;;;;;;;;;;4961222;28;20046;-57
2023/03/26 02:50:42;;;;;;;4.03;1.63;;;;;;;;;;4971022;28;20046;-58
2023/03/26 02:53:10;;;;;;;6.55;2.08;;;;;;;;;;4971290;28;20492;-58
2023/03/26 02:55:37;;;;;;;5.47;1.50;;;;;;;;;;4972189;28;20055;-58
2023/03/26 02:58:05;;;;;;;6.10;1.40;;;;;;;;;;4970405;28;20054;-58
2023/03/26 03:00:33;;;;;;;5.75;1.50;;;;;;;;;;4970768;28;20050;-57
2023/03/26 03:03:03;;;;;;;4.35;1.35;;;;;;;;;;4970865;28;20062;-57
2023/03/26 03:05:30;;;;;;;5.05;2.05;;;;;;;;;;4970547;28;20073;-58
2023/03/26 03:07:57;;;;;;;3.75;1.42;;;;;;;;;;4970404;28;20125;-57
2023/03/26 03:10:25;;;;;;;7.05;2.03;;;;;;;;;;4970090;28;20053;-58
2023/03/26 03:12:51;;;;;;;5.28;1.40;;;;;;;;;;4970341;28;20051;-57
2023/03/26 03:15:19;;;;;;;5.72;1.50;;;;;;;;;;4970211;28;20051;-56
2023/03/26 03:17:47;;;;;;;4.50;1.70;;;;;;;;;;4969907;28;20050;-57
2023/03/26 03:20:14;;;;;;;5.30;1.48;;;;;;;;;;4970023;28;20058;-59
2023/03/26 03:22:41;;;;;;;4.55;1.80;;;;;;;;;;4970770;28;20055;-59
2023/03/26 03:25:13;;;;;;;12.32;1.92;;;;;;;;;;4970123;28;20061;-59
2023/03/26 03:27:41;;;;;;;5.43;1.50;;;;;;;;;;4969929;28;20063;-59
2023/03/26 03:30:11;;;;;;;6.00;1.80;;;;;;;;;;4970364;28;20381;-57
2023/03/26 03:32:37;;;;;;;3.88;1.30;;;;;;;;;;4970616;28;20134;-57
2023/03/26 03:35:06;;;;;;;7.00;1.60;;;;;;;;;;4969981;28;20042;-55
2023/03/26 03:37:33;;;;;;;4.05;1.23;;;;;;;;;;4969347;28;20046;-57
2023/03/26 03:40:00;;;;;;;5.35;1.38;;;;;;;;;;4969664;28;20468;-58
2023/03/26 03:42:27;;;;;;;3.38;1.60;;;;;;;;;;4970313;28;20043;-58
2023/03/26 03:44:54;;;;;;;4.18;2.08;;;;;;;;;;4969425;28;20125;-58
2023/03/26 03:47:21;;;;;;;4.50;1.67;;;;;;;;;;4969572;28;20053;-57
2023/03/26 03:49:50;;;;;;;6.32;1.50;;;;;;;;;;4969060;28;20061;-58
2023/03/26 03:52:18;;;;;;;5.95;1.60;;;;;;;;;;4970078;28;20456;-58
2023/03/26 03:54:45;;;;;;;6.85;2.13;;;;;;;;;;4969503;28;20404;-57
2023/03/26 03:57:12;;;;;;;5.10;1.85;;;;;;;;;;4969453;28;20117;-59
2023/03/26 03:59:39;;;;;;;5.53;1.95;;;;;;;;;;4969524;28;20051;-55
2023/03/26 04:02:06;;;;;;;5.93;1.70;;;;;;;;;;4969476;28;20536;-55
2023/03/26 04:04:33;;;;;;;6.53;1.83;;;;;;;;;;4969583;28;20150;-56
2023/03/26 04:07:00;;;;;;;4.53;1.90;;;;;;;;;;4970154;28;20051;-57
2023/03/26 04:09:28;;;;;;;5.72;1.83;;;;;;;;;;4969860;28;20078;-51
2023/03/26 04:11:55;;;;;;;6.35;1.80;;;;;;;;;;4972125;28;20065;-55
2023/03/26 04:14:22;;;;;;;6.38;1.75;;;;;;;;;;4971523;28;20050;-54
2023/03/26 04:16:49;;;;;;;5.38;2.30;;;;;;;;;;4970361;28;20054;-54
2023/03/26 04:19:16;;;;;;;7.93;2.35;;;;;;;;;;4971759;28;20097;-55
2023/03/26 04:21:43;;;;;;;5.95;2.00;;;;;;;;;;4971579;28;20057;-53
2023/03/26 04:24:11;;;;;;;5.07;1.90;;;;;;;;;;4972197;28;20070;-54
2023/03/26 04:26:39;;;;;;;5.20;1.80;;;;;;;;;;4975521;28;20097;-53
2023/03/26 04:29:11;;;;;;;5.03;1.70;;;;;;;;;;4975230;28;20054;-55
2023/03/26 04:31:38;;;;;;;6.00;1.70;;;;;;;;;;4974036;28;20488;-55
2023/03/26 04:34:12;;;;;;;6.72;1.95;;;;;;;;;;4975185;28;20054;-55
2023/03/26 04:36:41;;;;;;;4.93;1.40;;;;;;;;;;4974023;28;20054;-55
2023/03/26 04:39:11;;;;;;;6.15;3.15;;;;;;;;;;4975460;28;20519;-53
2023/03/26 04:41:41;;;;;;;9.60;2.00;;;;;;;;;;4974448;28;20047;-54
2023/03/26 04:44:08;;;;;;;3.95;1.23;;;;;;;;;;4974322;28;20054;-59
2023/03/26 04:46:34;;;;;;;7.03;2.00;;;;;;;;;;4973033;28;20050;-56
2023/03/26 04:49:01;;;;;;;5.50;1.50;;;;;;;;;;4973069;28;20051;-59
2023/03/26 04:51:37;;;;;;;4.90;1.48;;;;;;;;;;4972832;28;20153;-58
2023/03/26 04:54:05;;;;;;;5.25;1.40;;;;;;;;;;4972725;28;20336;-59
2023/03/26 04:56:39;;;;;;;6.43;1.90;;;;;;;;;;4973027;28;20522;-58
2023/03/26 04:59:12;;;;;;;4.25;2.17;;;;;;;;;;4972582;28;20050;-59
2023/03/26 05:01:39;;;;;;;3.70;1.38;;;;;;;;;;4972343;28;20062;-58
2023/03/26 05:04:06;;;;;;;7.00;1.48;;;;;;;;;;4972612;28;20492;-59
2023/03/26 05:06:33;;;;;;;5.47;2.15;;;;;;;;;;4973180;28;20109;-57
2023/03/26 05:09:01;;;;;;;3.50;1.38;;;;;;;;;;4972970;28;20106;-58
2023/03/26 05:11:27;;;;;;;6.72;1.60;;;;;;;;;;4972412;28;20054;-58
2023/03/26 05:13:55;;;;;;;6.43;1.63;;;;;;;;;;4972399;28;20740;-59
2023/03/26 05:16:24;;;;;;;8.50;2.28;;;;;;;;;;4971986;28;20483;-58
2023/03/26 05:18:51;;;;;;;5.57;2.05;;;;;;;;;;4971973;28;20090;-59
2023/03/26 05:21:18;;;;;;;6.70;1.80;;;;;;;;;;4972553;28;20046;-59
2023/03/26 05:23:45;;;;;;;6.63;1.98;;;;;;;;;;4972506;28;20058;-59
2023/03/26 05:26:12;;;;;;;7.50;2.10;;;;;;;;;;4972416;28;20058;-58
2023/03/26 05:28:39;;;;;;;6.35;2.00;;;;;;;;;;4971950;28;20050;-58
2023/03/26 05:31:07;;;;;;;8.05;2.00;;;;;;;;;;4971699;28;20042;-55
2023/03/26 05:33:35;;;;;;;7.70;2.45;;;;;;;;;;4971583;28;20058;-59
2023/03/26 05:36:03;;;;;;;7.30;2.50;;;;;;;;;;4971260;28;20053;-59
2023/03/26 05:38:30;;;;;;;7.00;2.20;;;;;;;;;;4971822;28;20492;-57
2023/03/26 05:40:59;;;;;;;6.53;2.35;;;;;;;;;;4972144;28;20050;-59
2023/03/26 05:43:26;;;;;;;6.15;2.30;;;;;;;;;;4971801;28;20142;-58
2023/03/26 05:45:53;;;;;;;6.57;1.77;;;;;;;;;;4971823;28;20113;-58
2023/03/26 05:48:20;;;;;;;6.95;2.40;;;;;;;;;;4971896;28;20050;-55
2023/03/26 05:50:50;;;;;;;4.82;1.75;;;;;;;;;;4971584;28;20133;-56
2023/03/26 05:53:17;;;;;;;6.25;1.42;;;;;;;;;;4972184;28;20054;-57
2023/03/26 05:55:45;;;;;;;4.03;1.98;;;;;;;;;;4971759;28;20408;-57
2023/03/26 05:58:13;;;;;;;3.80;1.40;;;;;;;;;;4971715;28;20126;-57
2023/03/26 06:00:40;;;;;;;6.72;2.00;;;;;;;;;;4971531;28;20058;-58
2023/03/26 06:03:11;;;;;;;3.22;1.38;;;;;;;;;;4971217;28;20059;-55
2023/03/26 06:05:39;;;;;;;4.95;1.25;;;;;;;;;;4972165;28;20146;-56
2023/03/26 06:08:08;;;;;;;6.72;2.83;;;;;;;;;;4971594;28;20724;-59
2023/03/26 06:10:38;;;;;;;6.10;2.30;;;;;;;;;;4971847;28;20047;-55
2023/03/26 06:13:05;;;;;;;4.50;1.55;;;;;;;;;;4971817;28;20073;-57
2023/03/26 06:15:32;;;;;;;3.08;1.25;;;;;;;;;;4972217;28;20109;-56
2023/03/26 06:17:59;;;;;;;6.75;1.58;;;;;;;;;;4970869;28;20050;-58
2023/03/26 06:20:26;;;;;;;6.70;1.48;;;;;;;;;;4971430;28;20563;-58
2023/03/26 06:22:52;;;;;;;7.53;1.80;;;;;;;;;;4971488;28;20057;-57
2023/03/26 06:25:21;;;;;;;9.30;1.67;;;;;;;;;;4971432;28;20062;-59
2023/03/26 06:27:48;;;;;;;5.65;1.40;;;;;;;;;;4971077;28;20415;-60
2023/03/26 06:30:16;;;;;;;8.20;1.90;;;;;;;;;;4971069;28;20050;-59
2023/03/26 06:32:42;;;;;;;3.80;1.30;;;;;;;;;;4971754;28;20070;-58
2023/03/26 06:35:10;;;;;;;5.88;1.40;;;;;;;;;;4970250;28;20184;-57
2023/03/26 06:37:37;;;;;;;4.57;1.40;;;;;;;;;;4970876;28;20059;-60
2023/03/26 06:40:04;;;;;;;5.35;2.10;;;;;;;;;;4971735;28;20428;-59
2023/03/26 06:42:33;;;;;;;5.43;1.67;;;;;;;;;;4971430;28;20511;-59
2023/03/26 06:44:59;;;;;;;5.18;1.40;;;;;;;;;;4970292;28;20514;-57
2023/03/26 06:47:26;;;;;;;4.18;1.20;;;;;;;;;;4969950;28;20053;-55
2023/03/26 06:49:53;;;;;;;5.75;1.25;;;;;;;;;;4970829;28;20042;-57
2023/03/26 06:52:20;;;;;;;4.97;1.58;;;;;;;;;;4970949;28;20507;-55
2023/03/26 06:54:47;;;;;;;5.18;1.90;;;;;;;;;;4970845;28;20054;-55
2023/03/26 06:57:14;;;;;;;5.10;2.00;;;;;;;;;;4970483;28;20442;-56
2023/03/26 06:59:42;;;;;;;4.97;1.70;;;;;;;;;;4970782;28;20051;-57
2023/03/26 07:02:10;;;;;;;7.43;1.73;;;;;;;;;;4970248;28;20100;-52
2023/03/26 07:04:37;;;;;;;5.47;1.77;;;;;;;;;;4970524;28;20054;-55
2023/03/26 07:07:04;;;;;;;6.43;1.95;;;;;;;;;;4969762;28;20508;-57
2023/03/26 07:09:31;;;;;;;6.97;2.13;;;;;;;;;;4970473;28;20620;-56
2023/03/26 07:11:59;;;;;;;5.97;1.80;;;;;;;;;;4969947;28;20051;-58
2023/03/26 07:14:26;;;;;;;9.88;2.42;;;;;;;;;;4970015;28;20046;-57
2023/03/26 07:16:55;;;;;;;6.25;1.77;;;;;;;;;;4970149;28;20388;-55
2023/03/26 07:19:22;;;;;;;6.20;2.00;;;;;;;;;;4970051;28;20400;-56
2023/03/26 07:21:49;;;;;;;6.57;1.25;;;;;;;;;;4970259;28;20152;-59
2023/03/26 07:24:17;;;;;;;6.88;2.03;;;;;;;;;;4970108;28;20062;-55
2023/03/26 07:26:55;;;;;;;5.28;1.85;;;;;;;;;;4970030;28;20055;-56
2023/03/26 07:29:32;;;;;;;5.22;1.60;;;;;;;;;;4970374;28;20054;-55
2023/03/26 07:32:08;;;;;;;5.70;1.88;;;;;;;;;;4969799;28;20050;-54
2023/03/26 07:34:45;;;;;;;2.92;1.52;;;;;;;;;;4970064;28;20051;-55
2023/03/26 07:37:23;;;;;;;5.63;1.58;;;;;;;;;;4969740;28;20051;-54
2023/03/26 07:39:57;;;;;;;5.57;1.17;;;;;;;;;;4970584;28;20445;-55
2023/03/26 07:42:36;;;;;;;6.60;1.35;;;;;;;;;;4969999;28;20070;-55
2023/03/26 07:45:14;;;;;;;6.03;1.30;;;;;;;;;;4969402;28;20481;-57
2023/03/26 07:47:43;;;;;;;7.07;1.60;;;;;;;;;;4969743;28;20065;-57
2023/03/26 07:50:15;;;;;;;6.30;1.52;;;;;;;;;;4969389;28;20055;-56
2023/03/26 07:52:43;;;;;;;6.03;2.03;;;;;;;;;;4969689;28;20043;-56
2023/03/26 07:55:14;;;;;;;6.03;1.58;;;;;;;;;;4969364;28;20055;-58
2023/03/26 07:57:51;;;;;;;4.60;1.45;;;;;;;;;;4969683;28;20527;-56
2023/03/26 08:00:21;;;;;;;5.32;1.30;;;;;;;;;;4968461;28;20047;-56
2023/03/26 08:03:28;;;;;;;5.38;1.42;;;;;;;;;;4969883;28;20047;-58
2023/03/26 08:06:05;;;;;;;4.97;1.38;;;;;;;;;;4969396;28;20055;-55
2023/03/26 08:08:38;;;;;;;5.55;1.20;;;;;;;;;;4969957;28;20058;-56
2023/03/26 08:11:20;;;;;;;6.07;1.48;;;;;;;;;;4969374;28;20097;-56
2023/03/26 08:13:56;;;;;;;7.82;1.92;;;;;;;;;;4969783;28;20527;-58
2023/03/26 08:16:31;;;;;;;7.35;2.33;;;;;;;;;;4969691;28;20237;-55
2023/03/26 08:19:10;;;;;;;5.05;1.67;;;;;;;;;;4969346;28;20055;-56
2023/03/26 08:21:46;;;;;;;5.35;1.50;;;;;;;;;;4969151;28;20057;-58
2023/03/26 08:24:20;;;;;;;8.30;1.73;;;;;;;;;;4969667;28;20062;-55
2023/03/26 08:26:54;;;;;;;7.68;1.55;;;;;;;;;;4970238;28;20104;-56
2023/03/26 08:29:29;;;;;;;6.07;1.50;;;;;;;;;;4969227;28;20058;-55
2023/03/26 08:31:57;;;;;;;6.05;1.90;;;;;;;;;;4969434;28;20046;-57
2023/03/26 08:34:25;;;;;;;6.63;1.70;;;;;;;;;;4969667;28;20046;-55
2023/03/26 08:36:52;;;;;;;4.15;1.55;;;;;;;;;;4965145;28;20047;-57
2023/03/26 08:39:21;;;;;;;11.05;3.00;;;;;;;;;;4972837;28;20055;-56
2023/03/26 08:42:17;;;;;;;5.93;1.85;;;;;;;;;;4973839;28;20511;-56
2023/03/26 08:45:25;;;;;;;6.22;1.75;;;;;;;;;;4970735;28;20047;-56
2023/03/26 08:48:22;;;;;;;4.70;1.40;;;;;;;;;;5002387;23;20053;-81
2023/03/26 08:51:43;;;;;;;4.95;1.83;;;;;;;;;;4999568;28;20054;-80
2023/03/26 08:54:55;;;;;;;8.48;2.10;;;;;;;;;;5010044;28;20125;-77
2023/03/26 08:57:53;;;;;;;5.70;1.80;;;;;;;;;;5014675;28;20043;-80
2023/03/26 09:00:55;;;;;;;8.77;1.90;;;;;;;;;;4989196;28;20050;-80
2023/03/26 09:03:51;;;;;;;4.97;1.85;;;;;;;;;;5001335;28;20073;-81
2023/03/26 09:06:36;;;;;;;8.10;1.90;;;;;;;;;;4981442;28;20058;-80
2023/03/26 09:09:34;;;;;;;5.13;1.65;;;;;;;;;;4979392;28;20097;-81
2023/03/26 09:12:33;;;;;;;6.20;1.63;;;;;;;;;;4957264;28;20061;-81
2023/03/26 09:15:32;;;;;;;6.30;2.22;;;;;;;;;;4984317;28;20069;-80
2023/03/26 09:18:43;;;;;;;8.27;2.03;;;;;;;;;;4984796;28;20047;-79
2023/03/26 09:21:44;;;;;;;8.68;2.60;;;;;;;;;;4984054;28;20047;-79
2023/03/26 09:24:48;;;;;;;5.78;1.90;;;;;;;;;;4982558;28;20086;-82
2023/03/26 09:27:36;;;;;;;6.13;1.70;;;;;;;;;;4975162;28;20054;-81
2023/03/26 09:30:29;;;;;;;5.82;1.70;;;;;;;;;;4983304;28;20101;-80
2023/03/26 09:33:51;;;;;;;5.63;1.50;;;;;;;;;;4983664;28;20133;-79
2023/03/26 09:36:31;;;;;;;5.07;1.38;;;;;;;;;;4983135;28;20086;-81
2023/03/26 09:39:08;;;;;;;6.25;1.80;;;;;;;;;;4983164;28;20078;-81
2023/03/26 09:41:42;;;;;;;4.35;1.45;;;;;;;;;;4984317;28;20047;-80
2023/03/26 09:44:39;;;;;;;4.35;1.83;;;;;;;;;;4985536;28;20050;-81
2023/03/26 09:47:33;;;;;;;8.88;2.08;;;;;;;;;;4956114;28;20051;-81
2023/03/26 09:50:14;;;;;;;6.45;2.45;;;;;;;;;;4974397;28;20055;-81
2023/03/26 09:53:00;;;;;;;9.55;2.65;;;;;;;;;;4984228;28;20077;-81
2023/03/26 09:55:55;;;;;;;9.40;3.22;;;;;;;;;;4986608;28;20146;-81
2023/03/26 09:58:55;;;;;;;6.72;2.10;;;;;;;;;;4975716;28;20050;-80
2023/03/26 10:01:33;;;;;;;5.40;2.30;;;;;;;;;;4986053;28;20074;-81
2023/03/26 10:04:23;;;;;;;8.57;2.83;;;;;;;;;;4985381;28;20078;-80
2023/03/26 10:06:58;;;;;;;7.22;2.53;;;;;;;;;;4984792;28;20437;-81
2023/03/26 10:09:38;;;;;;;9.00;2.60;;;;;;;;;;4982928;28;20070;-79
2023/03/26 10:12:25;;;;;;;8.90;2.78;;;;;;;;;;4984868;28;20051;-79
2023/03/26 10:15:05;;;;;;;9.63;2.60;;;;;;;;;;4984135;28;20565;-80
2023/03/26 10:17:43;;;;;;;9.30;2.10;;;;;;;;;;4983898;28;20051;-80
2023/03/26 10:20:29;;;;;;;6.75;2.00;;;;;;;;;;4983253;28;20054;-80
2023/03/26 10:23:03;;;;;;;7.20;2.30;;;;;;;;;;4983679;28;20055;-81
2023/03/26 10:25:47;;;;;;;6.93;2.15;;;;;;;;;;4984858;28;20047;-80
2023/03/26 10:28:31;;;;;;;6.50;1.75;;;;;;;;;;4984072;28;20047;-82
2023/03/26 10:31:07;;;;;;;5.45;2.65;;;;;;;;;;4984326;28;20511;-80
2023/03/26 10:33:51;;;;;;;6.53;2.00;;;;;;;;;;4983796;28;20063;-79
2023/03/26 10:36:40;;;;;;;9.05;2.80;;;;;;;;;;4983399;28;20605;-81
2023/03/26 10:39:34;;;;;;;12.13;3.38;;;;;;;;;;4980263;28;20074;-85
2023/03/26 10:42:21;;;;;;;6.20;2.45;;;;;;;;;;4982595;28;20049;-86
2023/03/26 10:45:25;;;;;;;8.80;2.83;;;;;;;;;;4981557;28;20055;-87
2023/03/26 10:48:30;;;;;;;10.52;3.35;;;;;;;;;;4965996;28;20051;-81
2023/03/26 10:51:22;;;;;;;5.43;2.58;;;;;;;;;;4974966;28;20055;-81
2023/03/26 10:53:54;;;;;;;6.07;1.80;;;;;;;;;;4964204;28;20101;-83
2023/03/26 10:56:26;;;;;;;7.15;2.50;;;;;;;;;;4963439;28;20051;-88
2023/03/26 10:58:55;;;;;;;5.88;2.00;;;;;;;;;;4962851;28;20437;-87
2023/03/26 11:01:35;;;;;;;7.28;2.35;;;;;;;;;;4968595;28;20043;-85
2023/03/26 11:04:18;;;;;;;5.25;2.33;;;;;;;;;;4984718;28;20051;-87
2023/03/26 11:06:54;;;;;;;9.93;2.30;;;;;;;;;;4982864;28;20493;-86
2023/03/26 11:09:33;;;;;;;5.38;2.05;;;;;;;;;;4981150;28;20043;-87
2023/03/26 11:12:06;;;;;;;12.38;3.70;;;;;;;;;;4981178;28;20518;-88
2023/03/26 11:14:38;;;;;;;13.30;6.20;;;;;;;;;;4979653;28;20073;-88
2023/03/26 11:17:16;;;;;;;6.72;2.47;;;;;;;;;;4978609;28;20053;-87
2023/03/26 11:19:50;;;;;;;11.00;3.50;;;;;;;;;;4981414;28;20502;-86
2023/03/26 11:22:29;;;;;;;10.55;3.80;;;;;;;;;;4982108;28;20125;-84
2023/03/26 11:25:21;;;;;;;7.55;2.60;;;;;;;;;;4981620;28;20051;-83
2023/03/26 11:28:01;;;;;;;5.60;2.17;;;;;;;;;;4981241;28;20106;-81
2023/03/26 11:30:41;;;;;;;6.13;1.80;;;;;;;;;;4982376;28;20050;-82
2023/03/26 11:33:12;;;;;;;4.27;1.60;;;;;;;;;;4987479;28;20126;-83
2023/03/26 11:35:43;;;;;;;3.30;1.40;;;;;;;;;;4986563;28;20351;-82
2023/03/26 11:38:18;;;;;;;3.35;1.40;;;;;;;;;;4982056;28;20070;-83
2023/03/26 11:40:49;;;;;;;3.75;1.60;;;;;;;;;;4980310;28;20050;-83
2023/03/26 11:43:20;;;;;;;2.50;1.17;;;;;;;;;;4983997;28;20105;-82
2023/03/26 11:45:48;;;;;;;3.50;1.45;;;;;;;;;;4984746;28;20046;-84
2023/03/26 11:48:19;;;;;;;4.60;2.08;;;;;;;;;;4989256;28;20057;-83
2023/03/26 11:50:47;;;;;;;2.63;1.00;;;;;;;;;;4988556;28;20066;-79
2023/03/26 11:53:18;;;;;;;4.82;1.05;;;;;;;;;;4986356;28;20051;-82
2023/03/26 11:55:48;;;;;;;4.43;1.30;;;;;;;;;;4979519;28;20046;-81
2023/03/26 11:58:26;;;;;;;2.75;1.10;;;;;;;;;;4973612;28;20504;-82
2023/03/26 12:00:54;;;;;;;4.18;1.67;;;;;;;;;;4978654;28;20053;-83
2023/03/26 12:03:21;;;;;;;2.63;1.00;;;;;;;;;;4979524;28;20173;-82
2023/03/26 12:05:49;;;;;;;2.97;0.70;;;;;;;;;;4977988;28;20074;-82
2023/03/26 12:08:30;;;;;;;2.58;0.80;;;;;;;;;;4978487;28;20093;-82
2023/03/26 12:11:04;;;;;;;3.08;0.90;;;;;;;;;;4978226;28;20057;-82
2023/03/26 12:13:37;;;;;;;2.63;0.93;;;;;;;;;;4979191;28;20050;-83
2023/03/26 12:16:11;;;;;;;5.15;1.58;;;;;;;;;;4985458;28;20051;-84
2023/03/26 12:18:40;;;;;;;2.72;0.98;;;;;;;;;;4985469;28;20087;-83
2023/03/26 12:21:14;;;;;;;2.22;0.98;;;;;;;;;;4986617;28;20106;-83
2023/03/26 12:23:55;;;;;;;3.33;1.10;;;;;;;;;;4987642;28;20482;-82
2023/03/26 12:26:38;;;;;;;2.67;1.00;;;;;;;;;;4988892;28;20057;-83
2023/03/26 12:29:08;;;;;;;2.08;0.90;;;;;;;;;;4994580;28;20083;-89
2023/03/26 12:31:46;;;;;;;3.35;1.08;;;;;;;;;;4972148;28;20047;-82
2023/03/26 12:34:18;;;;;;;2.83;1.10;;;;;;;;;;4976700;28;20265;-83
2023/03/26 12:36:50;;;;;;;2.60;1.30;;;;;;;;;;4980427;28;20057;-83
2023/03/26 12:39:28;;;;;;;2.55;1.08;;;;;;;;;;4970957;28;20445;-83
2023/03/26 12:41:57;;;;;;;3.35;1.20;;;;;;;;;;4970721;28;20580;-83
2023/03/26 12:44:28;;;;;;;2.63;1.27;;;;;;;;;;4981788;28;20074;-86
2023/03/26 12:47:09;;;;;;;4.47;1.30;;;;;;;;;;4988146;28;20521;-82
2023/03/26 12:49:37;;;;;;;4.65;1.55;;;;;;;;;;4988503;28;20080;-84
2023/03/26 12:52:38;;;;;;;3.47;1.50;;;;;;;;;;4988895;28;20418;-84
2023/03/26 12:55:22;;;;;;;6.07;2.40;;;;;;;;;;4975713;28;20074;-84
2023/03/26 12:57:59;;;;;;;3.05;1.38;;;;;;;;;;4988661;28;20050;-85
2023/03/26 13:00:34;;;;;;;3.30;1.50;;;;;;;;;;4989487;28;20074;-84
2023/03/26 13:03:25;;;;;;;6.97;1.58;;;;;;;;;;4989555;28;20086;-86
2023/03/26 13:06:02;;;;;;;3.10;1.50;;;;;;;;;;4990124;28;20081;-85
2023/03/26 13:08:57;;;;;;;2.67;1.35;;;;;;;;;;4989536;28;20073;-83
2023/03/26 13:11:32;;;;;;;3.78;1.60;;;;;;;;;;4973613;29;20070;-86
2023/03/26 13:14:14;;;;;;;3.20;1.27;;;;;;;;;;4969974;29;20102;-85
2023/03/26 13:16:46;;;;;;;4.28;1.70;;;;;;;;;;4971591;28;20553;-86
2023/03/26 13:19:18;;;;;;;3.60;1.40;;;;;;;;;;4986285;28;20477;-86
2023/03/26 13:21:59;;;;;;;4.28;1.50;;;;;;;;;;4987781;28;20051;-86
2023/03/26 13:24:39;;;;;;;3.38;1.55;;;;;;;;;;4988232;28;20078;-83
2023/03/26 13:27:28;;;;;;;3.92;1.40;;;;;;;;;;4987455;28;20113;-85
2023/03/26 13:30:00;;;;;;;3.65;1.60;;;;;;;;;;4986101;28;20046;-84
2023/03/26 13:32:39;;;;;;;3.15;1.20;;;;;;;;;;4988898;28;20038;-85
2023/03/26 13:35:16;;;;;;;3.22;1.73;;;;;;;;;;4983492;28;20126;-84
2023/03/26 13:37:53;;;;;;;3.88;1.60;;;;;;;;;;4990970;28;20102;-84
2023/03/26 13:40:26;;;;;;;3.60;1.50;;;;;;;;;;4990825;28;20123;-83
2023/03/26 13:43:12;;;;;;;5.22;1.75;;;;;;;;;;4990760;28;20108;-83
2023/03/26 13:45:53;;;;;;;3.65;1.50;;;;;;;;;;4990393;28;20043;-86
2023/03/26 13:48:23;;;;;;;;;;;;;;;;;;4991009;28;20043;-85
2023/03/26 13:50:59;;;;;;;4.45;1.38;;;;;;;;;;4988848;28;19972;-84
2023/03/26 13:53:32;;;;;;;2.13;1.00;;;;;;;;;;4990385;28;20047;-86
2023/03/26 13:56:00;;;;;;;2.80;0.70;;;;;;;;;;4990434;28;20051;-84
2023/03/26 13:58:36;;;;;;;1.45;0.70;;;;;;;;;;4989798;28;20051;-85
2023/03/26 14:01:08;;;;;;;3.60;0.80;;;;;;;;;;4988088;28;20050;-84
2023/03/26 14:03:44;;;;;;;2.58;1.00;;;;;;;;;;4985282;28;20134;-84
2023/03/26 14:06:18;;;;;;;3.42;1.33;;;;;;;;;;4984411;28;20043;-84
2023/03/26 14:08:51;;;;;;;2.72;1.00;;;;;;;;;;4987842;28;20058;-82
2023/03/26 14:11:25;;;;;;;1.00;0.65;;;;;;;;;;4994040;28;20054;-83
2023/03/26 14:14:00;;;;;;;0.68;0.63;;;;;;;;;;4993073;28;20035;-86
2023/03/26 14:16:31;;;;;;;1.95;0.57;;;;;;;;;;4992305;28;20050;-86
2023/03/26 14:19:14;;;;;;;1.27;0.50;;;;;;;;;;4993444;28;20054;-84
2023/03/26 14:22:02;;;;;;;1.00;0.50;;;;;;;;;;4990860;28;20058;-85
2023/03/26 14:24:45;;;;;;;2.20;0.80;;;;;;;;;;4988418;28;20494;-83
2023/03/26 14:27:46;;;;;;;2.28;0.90;;;;;;;;;;4989272;28;20117;-81
2023/03/26 14:30:42;;;;;;;1.17;0.65;;;;;;;;;;4988877;28;20069;-84
2023/03/26 14:33:45;;;;;;;2.17;0.77;;;;;;;;;;4989096;28;20047;-84
2023/03/26 14:36:22;;;;;;;3.90;0.93;;;;;;;;;;4981622;28;20062;-82
2023/03/26 14:39:26;;;;;;;2.25;1.25;;;;;;;;;;4987272;28;20046;-86
2023/03/26 14:41:59;;;;;;;1.85;0.80;;;;;;;;;;4988579;28;20053;-81
2023/03/26 14:44:42;;;;;;;2.28;0.80;;;;;;;;;;4985900;28;20051;-82
2023/03/26 14:47:16;;;;;;;4.07;1.15;;;;;;;;;;4977883;28;20047;-83
2023/03/26 14:50:25;;;;;;;3.92;1.20;;;;;;;;;;4973262;28;20101;-83
2023/03/26 14:52:54;;;;;;;1.23;0.60;;;;;;;;;;4983134;28;20047;-81
2023/03/26 14:55:52;;;;;;;1.55;0.70;;;;;;;;;;4997065;22;20523;-77
2023/03/26 14:59:01;;;;;;;1.55;0.70;;;;;;;;;;4983364;28;20125;-78
2023/03/26 15:01:29;;;;;;;2.60;0.80;;;;;;;;;;4990237;28;20173;-77
2023/03/26 15:04:32;;;;;;;3.30;1.52;;;;;;;;;;4988890;28;20042;-77
2023/03/26 15:07:32;;;;;;;2.88;1.00;;;;;;;;;;4975842;28;20149;-78
2023/03/26 15:10:41;;;;;;;1.80;0.95;;;;;;;;;;4965893;28;20054;-79
2023/03/26 15:13:45;;;;;;;3.28;1.08;;;;;;;;;;4981426;28;20055;-78
2023/03/26 15:16:26;;;;;;;3.25;1.10;;;;;;;;;;4972401;28;20051;-79
2023/03/26 15:19:39;;;;;;;3.63;1.30;;;;;;;;;;4973633;28;20084;-78
2023/03/26 15:22:37;;;;;;;2.00;0.95;;;;;;;;;;4973042;28;20051;-79
2023/03/26 15:25:37;;;;;;;2.40;1.20;;;;;;;;;;4973770;28;20134;-79
2023/03/26 15:28:33;;;;;;;4.22;1.48;;;;;;;;;;4972324;28;20055;-78
2023/03/26 15:31:23;;;;;;;3.88;1.38;;;;;;;;;;4972246;28;20114;-78